Sant Joan Despi, Spain
Current Conditions -  °F | °C
As of 7:30 AM on Monday 26 Jan 2015 (Local Time) from LEBL Reporting Station
Clear Clear  
Wind Chill: 32°   Ceiling: Unl
Heat Index: 41°   Visibility: 6mi
Dew Point: 27°   Wind: 17mph
Humidity: 57%   Direction: 330°NNW
Pressure: 30.27"   Gusts: 35mph
Location:  41.37°N, 2.07°E
Report Text: LEBL 260630Z 33015G30KT CAVOK 05/M03 Q1025 NOSIG
Loading
Personal Weather Stations






























Interactive Weather Map New forecast layout! Learn more

10-Day Weather Forecast

Advertisements
Track Severe Weather on mobile